Terminal Aerodrome Forecast
Issued by NWS Cleveland, OH

Home | Current Version | Previous Version | Text Only | Print | Product List | Glossary Off
Versions: 1 2 3 4 5 6 7 8 9 10 11 12 13 14 15

000
FTUS41 KCLE 300538
TAFERI
TAF
KERI 300538Z 3006/3106 23004KT P6SM SCT030 BKN060
      TEMPO 3006/3008 3SM -SHRA OVC030
     FM300800 26008KT P6SM BKN250
     FM301400 26014G20KT P6SM SKC
     FM310100 23006KT P6SM SKC=

USA.gov is the U.S. government's official web portal to all federal, state and local government web resources and services.